Time;durP1;ratioP1;P1;durP2;ratioP2;P2;SDS_P1;SDS_P2;PMS_P1;PMS_P2;Temp;Humidity;BMP_temperature;BMP_pressure;BME280_temperature;BME280_humidity;BME280_pressure;Samples;Min_cycle;Max_cycle;Signal;HPM_P1;HPM_P2
2021/12/30 00:00:58;;;;;;;38.57;13.17;;;;;;;-9.39;52.24;99525.09;5042162;28;20095;-71
2021/12/30 00:03:25;;;;;;;31.97;12.67;;;;;;;-9.47;52.38;99528.50;5028789;28;20538;-71
2021/12/30 00:05:53;;;;;;;32.40;13.03;;;;;;;-9.42;52.17;99530.72;5011368;28;20045;-72
2021/12/30 00:08:19;;;;;;;;;;;;;;;-9.48;52.25;99523.38;5030089;28;20489;-70
2021/12/30 00:10:46;;;;;;;33.05;12.30;;;;;;;-9.44;52.38;99528.22;5040292;28;20036;-71
2021/12/30 00:13:12;;;;;;;39.10;11.88;;;;;;;-9.43;52.24;99518.47;5018201;28;20072;-71
2021/12/30 00:15:39;;;;;;;40.57;14.80;;;;;;;-9.45;52.35;99517.78;5022129;28;20037;-70
2021/12/30 00:18:07;;;;;;;33.88;12.75;;;;;;;-9.37;52.51;99524.97;5034580;28;20453;-69
2021/12/30 00:20:34;;;;;;;35.13;13.83;;;;;;;-9.41;52.18;99509.38;5022222;28;20042;-71
2021/12/30 00:23:04;;;;;;;35.60;12.83;;;;;;;-9.34;52.62;99511.41;5031614;28;20037;-71
2021/12/30 00:25:38;;;;;;;35.67;12.80;;;;;;;-9.36;52.68;99516.88;5030038;28;20041;-71
2021/12/30 00:28:05;;;;;;;32.57;11.57;;;;;;;-9.30;52.44;99516.25;5046938;28;20505;-71
2021/12/30 00:30:31;;;;;;;40.28;13.10;;;;;;;-9.33;52.38;99518.38;5016126;28;20060;-72
2021/12/30 00:32:57;;;;;;;37.70;13.47;;;;;;;-9.40;52.76;99508.41;5027052;28;20053;-71
2021/12/30 00:35:23;;;;;;;35.07;12.87;;;;;;;-9.34;52.63;99512.25;5028553;28;20425;-72
2021/12/30 00:37:49;;;;;;;29.50;13.20;;;;;;;-9.42;52.85;99493.63;5016831;28;20057;-70
2021/12/30 00:40:17;;;;;;;33.93;13.07;;;;;;;-9.26;52.53;99509.66;5009279;28;20049;-71
2021/12/30 00:42:43;;;;;;;32.20;13.47;;;;;;;-9.21;52.77;99511.00;5026369;28;20108;-71
2021/12/30 00:45:10;;;;;;;34.23;12.30;;;;;;;-9.21;52.97;99518.97;5022497;28;20046;-71
2021/12/30 00:47:36;;;;;;;34.93;13.17;;;;;;;-9.34;52.68;99506.13;5003421;28;20042;-71
2021/12/30 00:50:03;;;;;;;35.90;12.83;;;;;;;-9.23;52.61;99524.44;5024883;28;20042;-71
2021/12/30 00:52:33;;;;;;;32.35;13.25;;;;;;;-9.26;53.06;99525.56;5012086;28;20050;-71
2021/12/30 00:54:59;;;;;;;58.03;13.87;;;;;;;-9.31;53.27;99516.41;5023144;28;20053;-71
2021/12/30 00:57:27;;;;;;;34.30;13.27;;;;;;;-9.29;53.29;99519.72;5021655;28;20084;-72
2021/12/30 00:59:56;;;;;;;32.00;12.53;;;;;;;-9.31;52.95;99519.03;5010377;28;20141;-71
2021/12/30 01:02:23;;;;;;;32.47;11.83;;;;;;;-9.34;53.46;99514.91;5027103;28;20111;-70
2021/12/30 01:04:51;;;;;;;32.60;12.10;;;;;;;-9.28;53.36;99524.06;5043033;28;20138;-70
2021/12/30 01:07:18;;;;;;;35.43;13.97;;;;;;;-9.28;53.43;99527.53;5040919;28;20046;-70
2021/12/30 01:09:44;;;;;;;35.77;12.43;;;;;;;-9.26;53.37;99525.56;5010297;28;20061;-70
2021/12/30 01:12:11;;;;;;;37.43;13.03;;;;;;;-9.29;53.40;99527.66;5019387;28;20413;-70
2021/12/30 01:14:38;;;;;;;34.97;12.13;;;;;;;-9.27;53.47;99523.06;5044370;28;20049;-69
2021/12/30 01:17:24;;;;;;;30.08;12.55;;;;;;;-9.30;53.44;99516.25;5016780;28;20309;-70
2021/12/30 01:19:53;;;;;;;30.00;12.73;;;;;;;-9.27;53.58;99523.06;5034848;28;20049;-71
2021/12/30 01:22:23;;;;;;;37.10;13.00;;;;;;;-9.23;53.41;99518.28;5026071;28;20041;-71
2021/12/30 01:24:51;;;;;;;35.07;13.37;;;;;;;-9.21;53.30;99508.38;5052502;28;20119;-70
2021/12/30 01:27:19;;;;;;;37.15;13.00;;;;;;;-9.15;53.46;99502.47;5032904;28;20414;-71
2021/12/30 01:29:48;;;;;;;40.65;13.00;;;;;;;-9.16;53.69;99495.50;5030087;28;20132;-70
2021/12/30 01:32:15;;;;;;;36.27;12.77;;;;;;;-9.23;53.75;99499.75;5024454;28;20079;-71
2021/12/30 01:34:41;;;;;;;34.10;13.20;;;;;;;-9.20;53.95;99500.28;5029647;28;20052;-71
2021/12/30 01:37:12;;;;;;;41.40;14.43;;;;;;;-9.09;53.73;99498.38;5015069;28;20499;-71
2021/12/30 01:39:39;;;;;;;38.53;13.67;;;;;;;-9.10;53.35;99496.72;5024789;28;20049;-71
2021/12/30 01:42:07;;;;;;;34.60;13.70;;;;;;;-9.02;53.30;99505.56;5037606;28;20059;-70
2021/12/30 01:44:34;;;;;;;40.13;14.53;;;;;;;-9.14;53.41;99478.44;5052838;28;20099;-70
2021/12/30 01:47:04;;;;;;;39.15;14.10;;;;;;;-9.02;53.42;99492.31;5011653;28;20046;-71
2021/12/30 01:49:30;;;;;;;36.83;12.73;;;;;;;-9.00;53.38;99495.63;5023983;28;20064;-71
2021/12/30 01:51:57;;;;;;;32.20;12.30;;;;;;;-9.01;53.89;99493.13;5036895;28;20053;-70
2021/12/30 01:54:24;;;;;;;32.25;13.52;;;;;;;-8.89;53.75;99489.22;5036656;28;20057;-70
2021/12/30 01:56:52;;;;;;;31.83;13.33;;;;;;;-8.91;53.81;99485.06;5027147;28;20045;-70
2021/12/30 01:59:23;;;;;;;31.90;12.65;;;;;;;-8.97;53.74;99486.53;5012979;28;20060;-70
2021/12/30 02:01:56;;;;;;;38.70;11.90;;;;;;;-8.99;54.10;99489.34;5023262;28;20056;-71
2021/12/30 02:04:25;;;;;;;38.00;13.00;;;;;;;-8.97;54.07;99491.84;5017316;28;20042;-71
2021/12/30 02:06:52;;;;;;;38.83;13.20;;;;;;;-8.88;54.03;99490.88;5030227;28;20050;-71
2021/12/30 02:09:19;;;;;;;32.92;12.88;;;;;;;-8.83;53.92;99485.13;5025656;28;20069;-70
2021/12/30 02:11:46;;;;;;;40.33;13.93;;;;;;;-8.86;53.80;99488.91;5024193;28;20139;-71
2021/12/30 02:14:12;;;;;;;35.63;12.63;;;;;;;-8.85;53.89;99489.75;5025952;28;20053;-71
2021/12/30 02:16:39;;;;;;;29.70;13.13;;;;;;;-8.89;53.96;99493.72;5022504;28;20061;-71
2021/12/30 02:19:06;;;;;;;39.23;12.80;;;;;;;-8.90;53.99;99492.03;5038073;28;20049;-71
2021/12/30 02:21:33;;;;;;;38.03;13.87;;;;;;;-8.87;54.26;99489.09;5033042;28;20077;-71
2021/12/30 02:23:59;;;;;;;;;;;;;;;-8.83;54.24;99485.13;5026443;28;20132;-71
2021/12/30 02:26:28;;;;;;;39.37;12.17;;;;;;;-8.86;53.90;99482.78;5029000;28;19940;-71
2021/12/30 02:28:55;;;;;;;43.03;12.77;;;;;;;-8.82;54.04;99481.47;5030712;28;20049;-70
2021/12/30 02:31:24;;;;;;;36.10;13.70;;;;;;;-8.81;53.99;99487.63;5010570;28;20046;-71
2021/12/30 02:33:51;;;;;;;44.70;12.70;;;;;;;-8.85;54.02;99477.31;5023762;28;20081;-71
2021/12/30 02:36:22;;;;;;;30.13;12.18;;;;;;;-8.87;54.18;99481.13;5022074;28;20045;-71
2021/12/30 02:38:53;;;;;;;36.40;13.43;;;;;;;-8.89;54.45;99478.63;5052216;28;20045;-70
2021/12/30 02:41:20;;;;;;;33.53;12.07;;;;;;;-8.91;54.45;99471.81;5034131;28;20603;-71
2021/12/30 02:43:48;;;;;;;31.97;12.87;;;;;;;-8.94;54.34;99466.81;5003585;28;20298;-71
2021/12/30 02:46:22;;;;;;;40.17;14.33;;;;;;;-8.91;54.60;99472.66;5029123;28;20049;-71
2021/12/30 02:48:52;;;;;;;33.97;13.23;;;;;;;-8.84;54.37;99472.88;5008340;28;20050;-72
2021/12/30 02:51:20;;;;;;;42.93;13.70;;;;;;;-8.84;54.67;99475.50;5027134;28;20414;-71
2021/12/30 02:53:47;;;;;;;40.77;12.87;;;;;;;-8.81;54.33;99475.19;5032403;28;20585;-71
2021/12/30 02:56:18;;;;;;;34.00;13.10;;;;;;;-8.89;54.61;99468.03;5053298;28;20041;-71
2021/12/30 02:58:45;;;;;;;37.07;13.57;;;;;;;-8.88;54.57;99480.28;5046934;28;20465;-71
2021/12/30 03:01:14;;;;;;;33.50;12.82;;;;;;;-8.85;54.90;99471.19;5002520;28;20053;-71
2021/12/30 03:03:41;;;;;;;33.40;12.00;;;;;;;-8.85;54.56;99474.66;5019737;28;20041;-70
2021/12/30 03:06:09;;;;;;;40.37;12.87;;;;;;;-8.80;54.72;99473.38;5030938;28;20041;-70
2021/12/30 03:08:39;;;;;;;38.43;12.70;;;;;;;-8.86;54.52;99458.94;5026021;28;20096;-69
2021/12/30 03:11:07;;;;;;;33.03;13.93;;;;;;;-8.82;54.67;99460.28;5026934;28;20153;-70
2021/12/30 03:13:35;;;;;;;39.63;13.53;;;;;;;-8.83;54.83;99470.03;5026774;28;20055;-70
2021/12/30 03:16:06;;;;;;;43.23;12.90;;;;;;;-8.79;54.81;99456.50;5016677;28;20034;-70
2021/12/30 03:18:34;;;;;;;34.50;12.93;;;;;;;-8.81;54.96;99461.13;5013332;28;20049;-69
2021/12/30 03:21:01;;;;;;;35.70;13.23;;;;;;;-8.72;54.87;99465.47;5018003;28;20053;-70
2021/12/30 03:23:28;;;;;;;39.87;14.03;;;;;;;-8.76;54.79;99457.00;5024133;28;20046;-69
2021/12/30 03:25:57;;;;;;;38.60;13.47;;;;;;;-8.74;55.11;99454.19;5012733;28;20046;-70
2021/12/30 03:28:26;;;;;;;35.30;12.90;;;;;;;-8.71;55.20;99457.38;5028368;28;20128;-69
2021/12/30 03:30:58;;;;;;;30.00;12.87;;;;;;;-8.74;55.01;99455.03;5010161;28;20139;-70
2021/12/30 03:33:26;;;;;;;32.03;12.30;;;;;;;-8.72;55.01;99458.34;5019419;28;20095;-70
2021/12/30 03:35:52;;;;;;;32.80;12.27;;;;;;;-8.70;55.23;99453.72;5016792;28;20554;-70
2021/12/30 03:38:21;;;;;;;31.63;12.40;;;;;;;-8.74;55.50;99454.19;5000199;28;20038;-70
2021/12/30 03:40:47;;;;;;;34.37;12.77;;;;;;;-8.73;55.39;99453.19;5026358;28;20063;-70
2021/12/30 03:43:13;;;;;;;36.83;13.37;;;;;;;-8.77;55.48;99454.50;5039773;28;20057;-70
2021/12/30 03:45:39;;;;;;;35.83;12.27;;;;;;;-8.75;55.69;99457.84;5030769;28;20089;-70
2021/12/30 03:48:07;;;;;;;38.17;12.53;;;;;;;-8.73;55.46;99459.34;5025461;28;20559;-69
2021/12/30 03:50:43;;;;;;;35.83;13.93;;;;;;;-8.71;55.35;99453.88;5035720;28;20075;-69
2021/12/30 03:53:14;;;;;;;33.53;13.13;;;;;;;-8.63;55.35;99448.63;5034432;28;20045;-71
2021/12/30 03:55:41;;;;;;;37.97;13.00;;;;;;;-8.59;55.29;99457.91;5042117;28;20099;-70
2021/12/30 03:58:08;;;;;;;35.15;13.00;;;;;;;-8.61;55.08;99449.28;5020068;28;20050;-70
2021/12/30 04:00:37;;;;;;;36.55;13.43;;;;;;;-8.58;55.22;99453.47;5032357;28;20422;-70
2021/12/30 04:03:04;;;;;;;36.27;13.57;;;;;;;-8.63;55.38;99448.63;5022952;28;20054;-70
2021/12/30 04:05:32;;;;;;;36.00;12.07;;;;;;;-8.61;55.44;99448.44;5011308;28;20053;-71
2021/12/30 04:08:01;;;;;;;;;;;;;;;-8.59;55.47;99439.34;5040400;28;20135;-71
2021/12/30 04:10:29;;;;;;;31.10;12.53;;;;;;;-8.60;55.43;99434.19;5050511;28;19932;-72
2021/12/30 04:12:56;;;;;;;34.45;14.35;;;;;;;-8.65;55.57;99432.03;5035434;28;20045;-71
2021/12/30 04:15:22;;;;;;;37.83;14.02;;;;;;;-8.62;55.62;99438.84;5040557;28;21719;-69
2021/12/30 04:17:48;;;;;;;33.13;12.57;;;;;;;-8.62;55.46;99442.31;5019615;28;20050;-71
2021/12/30 04:20:17;;;;;;;35.57;13.47;;;;;;;-8.61;55.60;99436.03;5031461;28;20060;-72
2021/12/30 04:22:45;;;;;;;32.77;12.90;;;;;;;-8.48;55.15;99435.53;5022079;28;20144;-71
2021/12/30 04:25:14;;;;;;;44.63;14.00;;;;;;;-8.44;55.31;99438.72;5031512;28;20053;-71
2021/12/30 04:27:41;;;;;;;33.90;13.60;;;;;;;-8.48;55.36;99438.19;5028032;28;20045;-70
2021/12/30 04:30:13;;;;;;;38.97;13.33;;;;;;;-8.66;55.37;99416.28;5022668;28;20092;-71
2021/12/30 04:32:42;;;;;;;35.07;13.20;;;;;;;-8.49;55.86;99431.22;5012640;28;20309;-71
2021/12/30 04:35:09;;;;;;;32.37;12.63;;;;;;;-8.49;55.41;99436.53;5013074;28;20100;-71
2021/12/30 04:37:35;;;;;;;39.15;13.98;;;;;;;-8.53;55.67;99434.38;5011281;28;20049;-71
2021/12/30 04:40:04;;;;;;;34.57;13.53;;;;;;;-8.61;56.16;99432.53;5026878;28;20057;-69
2021/12/30 04:42:30;;;;;;;36.17;13.77;;;;;;;-8.59;55.73;99435.84;5010416;28;20046;-70
2021/12/30 04:44:56;;;;;;;41.20;14.47;;;;;;;-8.50;55.66;99434.09;5023358;28;20045;-70
2021/12/30 04:47:25;;;;;;;37.83;12.67;;;;;;;-8.53;55.63;99437.03;5050116;28;20041;-71
2021/12/30 04:49:57;;;;;;;36.37;13.93;;;;;;;-8.51;55.92;99435.91;5013847;28;20042;-70
2021/12/30 04:52:24;;;;;;;42.13;14.57;;;;;;;-8.47;55.83;99436.38;5011937;28;20049;-69
2021/12/30 04:54:50;;;;;;;34.63;12.90;;;;;;;-8.53;56.23;99437.88;5039458;28;20067;-70
2021/12/30 04:57:18;;;;;;;36.83;13.30;;;;;;;-8.50;56.03;99436.75;5041793;28;20054;-70
2021/12/30 04:59:47;;;;;;;38.00;13.67;;;;;;;-8.50;55.98;99447.34;5028640;28;20077;-70
2021/12/30 05:02:13;;;;;;;33.27;12.43;;;;;;;-8.48;55.78;99448.00;5025258;28;20045;-70
2021/12/30 05:04:39;;;;;;;32.73;12.80;;;;;;;-8.50;55.98;99448.16;5030736;28;20045;-70
2021/12/30 05:07:08;;;;;;;35.67;13.27;;;;;;;-8.51;55.87;99437.72;5022267;28;20095;-69
2021/12/30 05:09:34;;;;;;;40.13;13.93;;;;;;;-8.43;55.82;99443.03;5014209;28;20076;-69
2021/12/30 05:12:00;;;;;;;32.17;14.00;;;;;;;-8.49;56.12;99433.88;5031911;28;20566;-71
2021/12/30 05:14:31;;;;;;;36.70;13.83;;;;;;;-8.45;56.36;99439.72;5030327;28;20153;-71
2021/12/30 05:17:02;;;;;;;36.93;13.93;;;;;;;-8.50;56.43;99431.44;5022426;28;20436;-70
2021/12/30 05:19:30;;;;;;;32.60;13.03;;;;;;;-8.47;56.18;99445.16;5022908;28;20076;-71
2021/12/30 05:21:57;;;;;;;39.33;14.30;;;;;;;-8.45;56.11;99445.00;5014258;28;20136;-69
2021/12/30 05:24:23;;;;;;;40.27;14.47;;;;;;;-8.46;56.27;99441.50;5043257;28;20498;-70
2021/12/30 05:26:50;;;;;;;38.93;14.33;;;;;;;-8.56;55.99;99417.00;5028236;28;20056;-70
2021/12/30 05:29:16;;;;;;;36.10;13.77;;;;;;;-8.41;56.17;99433.94;5016141;28;20050;-70
2021/12/30 05:31:44;;;;;;;33.20;13.10;;;;;;;-8.40;55.93;99424.13;5019729;28;20099;-71
2021/12/30 05:34:10;;;;;;;41.63;14.63;;;;;;;-8.38;56.12;99435.41;5026048;28;20477;-72
2021/12/30 05:36:36;;;;;;;36.43;14.37;;;;;;;-8.39;56.38;99433.75;5030393;28;20046;-73
2021/12/30 05:39:03;;;;;;;41.60;14.43;;;;;;;-8.40;56.27;99426.78;5036555;28;20488;-70
2021/12/30 05:41:29;;;;;;;35.43;14.10;;;;;;;-8.37;56.23;99429.13;5023494;28;20513;-70
2021/12/30 05:43:56;;;;;;;37.40;14.47;;;;;;;-8.38;56.23;99430.09;5031315;28;20055;-70
2021/12/30 05:46:22;;;;;;;32.30;13.33;;;;;;;-8.37;56.41;99429.13;5048016;28;20127;-71
2021/12/30 05:49:07;;;;;;;36.47;14.07;;;;;;;-8.42;56.07;99431.44;5023999;28;20057;-75
2021/12/30 05:51:43;;;;;;;35.57;13.73;;;;;;;-8.43;56.33;99440.38;5022181;28;20490;-70
2021/12/30 05:54:10;;;;;;;37.50;13.57;;;;;;;-8.52;56.31;99418.34;5012912;28;20049;-73
2021/12/30 05:56:36;;;;;;;36.97;14.50;;;;;;;-8.41;56.62;99433.09;5023398;28;20045;-71
2021/12/30 05:59:02;;;;;;;35.43;13.67;;;;;;;-8.42;56.74;99436.72;5025621;28;20406;-73
2021/12/30 06:01:28;;;;;;;37.17;14.60;;;;;;;-8.49;56.60;99438.38;5036475;28;20068;-71
2021/12/30 06:03:56;;;;;;;35.20;14.07;;;;;;;-8.46;56.89;99444.16;5025995;28;20042;-72
2021/12/30 06:06:23;;;;;;;34.08;13.70;;;;;;;-8.44;56.87;99438.72;5027271;28;20115;-71
2021/12/30 06:08:50;;;;;;;34.90;13.13;;;;;;;-8.49;56.96;99433.06;5030526;28;20045;-71
2021/12/30 06:11:17;;;;;;;39.50;13.35;;;;;;;-8.49;57.04;99441.03;5030859;28;20052;-71
2021/12/30 06:13:43;;;;;;;38.03;13.07;;;;;;;-8.49;56.97;99447.16;5010645;28;20041;-71
2021/12/30 06:16:09;;;;;;;40.30;14.17;;;;;;;-8.46;57.10;99446.00;5033440;28;20041;-71
2021/12/30 06:18:37;;;;;;;29.13;12.07;;;;;;;-8.50;57.01;99442.88;5027486;28;20053;-72
2021/12/30 06:21:04;;;;;;;39.63;14.25;;;;;;;-8.51;56.96;99440.38;5027253;28;20054;-71
2021/12/30 06:23:42;;;;;;;33.63;12.60;;;;;;;-8.48;56.96;99442.69;5028029;28;20136;-71
2021/12/30 06:26:11;;;;;;;32.47;13.00;;;;;;;-8.49;57.16;99451.63;4996812;28;20414;-70
2021/12/30 06:28:37;;;;;;;29.33;12.93;;;;;;;-8.45;57.02;99445.00;5012729;28;20137;-71
2021/12/30 06:31:03;;;;;;;36.30;13.47;;;;;;;-8.42;57.07;99439.38;5014080;28;20085;-72
2021/12/30 06:33:29;;;;;;;36.27;13.80;;;;;;;-8.35;57.19;99453.69;5028577;28;20107;-70
2021/12/30 06:35:56;;;;;;;32.30;13.13;;;;;;;-8.38;56.96;99455.81;4995687;28;20041;-70
2021/12/30 06:38:23;;;;;;;36.73;13.40;;;;;;;-8.36;57.18;99454.66;5030778;28;20049;-70
2021/12/30 06:40:49;;;;;;;;;;;;;;;-8.34;57.51;99458.00;5032155;28;20067;-71
2021/12/30 06:43:15;;;;;;;40.90;14.07;;;;;;;-8.29;56.90;99458.34;5023358;28;19983;-71
2021/12/30 06:45:44;;;;;;;33.03;13.63;;;;;;;-8.25;56.81;99461.50;5013023;28;20053;-70
2021/12/30 06:48:13;;;;;;;36.23;13.83;;;;;;;-8.21;56.82;99457.53;5012125;28;20105;-70
2021/12/30 06:50:40;;;;;;;35.77;12.83;;;;;;;-8.22;56.77;99453.22;5035218;28;20099;-69
2021/12/30 06:53:06;;;;;;;40.03;13.90;;;;;;;-8.20;56.81;99453.88;5040726;28;20069;-69
2021/12/30 06:55:33;;;;;;;36.20;13.13;;;;;;;-8.20;57.32;99456.53;5032654;28;20054;-70
2021/12/30 06:57:59;;;;;;;34.78;13.15;;;;;;;-8.16;57.26;99446.44;5033335;28;20099;-71
2021/12/30 07:00:26;;;;;;;30.33;12.73;;;;;;;-8.15;57.08;99451.56;5014280;28;20593;-71
2021/12/30 07:02:52;;;;;;;34.20;13.47;;;;;;;-8.08;57.02;99450.94;5040350;28;20052;-71
2021/12/30 07:05:18;;;;;;;36.67;14.10;;;;;;;-8.06;57.04;99451.59;5032251;28;20518;-71
2021/12/30 07:07:44;;;;;;;35.30;13.27;;;;;;;-8.02;56.98;99451.13;5017059;28;20133;-71
2021/12/30 07:10:11;;;;;;;33.57;13.00;;;;;;;-7.98;56.91;99452.44;5033848;28;20057;-72
2021/12/30 07:12:39;;;;;;;34.70;13.10;;;;;;;-8.00;56.98;99457.09;5039236;28;20049;-71
2021/12/30 07:15:07;;;;;;;36.90;14.50;;;;;;;-8.05;57.01;99445.31;5026614;28;20050;-71
2021/12/30 07:17:33;;;;;;;33.35;13.65;;;;;;;-7.99;57.42;99455.25;5013919;28;20049;-71
2021/12/30 07:20:02;;;;;;;34.47;14.27;;;;;;;-7.97;57.10;99450.59;5023129;28;20064;-70
2021/12/30 07:22:30;;;;;;;37.47;14.70;;;;;;;-7.94;57.37;99454.78;5050397;28;20052;-70
2021/12/30 07:24:56;;;;;;;32.37;13.67;;;;;;;-7.92;57.14;99456.28;5024610;28;20044;-72
2021/12/30 07:27:23;;;;;;;37.60;13.57;;;;;;;-7.91;57.51;99457.94;5040884;28;21267;-70
2021/12/30 07:29:51;;;;;;;34.35;13.35;;;;;;;-7.94;57.30;99450.31;5021859;28;20136;-70
2021/12/30 07:32:18;;;;;;;44.23;14.00;;;;;;;-7.86;57.28;99458.28;5021068;28;20045;-70
2021/12/30 07:34:44;;;;;;;39.93;13.80;;;;;;;-7.86;57.34;99462.78;5031633;28;20125;-71
2021/12/30 07:37:14;;;;;;;31.13;12.77;;;;;;;-7.81;57.35;99460.44;5017171;28;20145;-72
2021/12/30 07:39:44;;;;;;;36.37;12.73;;;;;;;-7.73;57.15;99468.41;5031954;28;20053;-70
2021/12/30 07:42:11;;;;;;;38.43;13.70;;;;;;;-7.73;57.24;99455.13;5000054;28;20144;-71
2021/12/30 07:44:38;;;;;;;38.50;13.40;;;;;;;-7.75;57.15;99462.44;5026157;28;20135;-72
2021/12/30 07:47:07;;;;;;;32.92;12.73;;;;;;;-7.73;57.38;99468.41;5013002;28;20045;-72
2021/12/30 07:49:36;;;;;;;37.70;13.97;;;;;;;-7.72;57.39;99470.09;5018147;28;20050;-69
2021/12/30 07:52:03;;;;;;;40.37;14.10;;;;;;;-7.74;57.65;99473.91;5032033;28;20045;-70
2021/12/30 07:54:29;;;;;;;28.25;12.32;;;;;;;-7.70;57.46;99483.19;5013273;28;20572;-70
2021/12/30 07:56:56;;;;;;;40.70;13.27;;;;;;;-7.67;57.71;99484.69;5020102;28;20033;-71
2021/12/30 07:59:22;;;;;;;35.20;14.33;;;;;;;-7.64;57.40;99482.56;5019837;28;20509;-67
2021/12/30 08:01:49;;;;;;;31.90;13.53;;;;;;;-7.59;57.79;99490.00;5019194;28;20068;-68
2021/12/30 08:04:16;;;;;;;31.77;12.93;;;;;;;-7.60;57.75;99486.53;5013451;28;20065;-68
2021/12/30 08:06:42;;;;;;;35.53;14.73;;;;;;;-7.56;57.55;99482.53;5018505;28;20053;-69
2021/12/30 08:09:08;;;;;;;48.07;15.90;;;;;;;-7.57;57.60;99475.56;5030220;28;20430;-67
2021/12/30 08:11:35;;;;;;;39.83;16.37;;;;;;;-7.55;57.81;99476.25;5031741;28;20045;-68
2021/12/30 08:14:01;;;;;;;48.17;18.10;;;;;;;-7.55;57.79;99465.63;5025490;28;20050;-70
2021/12/30 08:16:28;;;;;;;43.17;17.80;;;;;;;-7.49;57.70;99468.59;5027196;28;20065;-72
2021/12/30 08:18:54;;;;;;;46.93;18.40;;;;;;;-7.47;58.02;99470.09;5022433;28;20042;-71
2021/12/30 08:21:22;;;;;;;43.47;17.50;;;;;;;-7.42;58.05;99470.41;5030947;28;20136;-71
2021/12/30 08:23:51;;;;;;;44.73;18.60;;;;;;;-7.38;57.77;99456.84;5026812;28;20126;-70
2021/12/30 08:26:17;;;;;;;45.10;17.43;;;;;;;-7.39;57.69;99445.38;5030792;28;20482;-70
2021/12/30 08:28:43;;;;;;;37.10;16.53;;;;;;;-7.29;58.21;99455.81;5007012;28;20054;-71
2021/12/30 08:31:12;;;;;;;40.73;17.53;;;;;;;-7.24;57.95;99458.81;5010626;28;20524;-71
2021/12/30 08:33:38;;;;;;;43.70;17.97;;;;;;;-7.26;57.67;99461.63;5027116;28;20067;-70
2021/12/30 08:36:04;;;;;;;49.47;18.33;;;;;;;-7.14;57.70;99471.94;5019925;28;20046;-69
2021/12/30 08:38:32;;;;;;;45.63;17.47;;;;;;;-7.14;57.84;99462.13;5028497;28;20411;-70
2021/12/30 08:40:59;;;;;;;47.00;17.43;;;;;;;-7.18;57.69;99454.63;5025387;28;20057;-72
2021/12/30 08:43:26;;;;;;;47.90;17.77;;;;;;;-7.09;58.16;99458.97;5023042;28;20056;-73
2021/12/30 08:45:52;;;;;;;41.97;17.33;;;;;;;-7.19;58.18;99451.16;5026473;28;20053;-72
2021/12/30 08:48:20;;;;;;;38.23;16.53;;;;;;;-7.14;58.52;99451.47;5025717;28;20053;-70
2021/12/30 08:51:39;;;;;;;;;;;;;;;-7.09;58.36;99455.50;5033319;28;20132;-71
2021/12/30 08:54:19;;;;;;;45.37;16.00;;;;;;;-7.04;58.36;99450.47;5021319;28;20298;-71
2021/12/30 08:56:49;;;;;;;41.88;16.20;;;;;;;-7.04;58.06;99453.16;5012762;28;20053;-72
2021/12/30 08:59:15;;;;;;;43.53;15.80;;;;;;;-7.02;58.06;99448.47;5018048;28;20065;-71
2021/12/30 09:01:41;;;;;;;42.60;16.10;;;;;;;-7.03;58.21;99444.97;5006833;28;20053;-72
2021/12/30 09:04:07;;;;;;;37.40;15.47;;;;;;;-7.03;58.39;99439.66;5022521;28;22193;-73
2021/12/30 09:06:33;;;;;;;41.13;15.37;;;;;;;-7.01;58.69;99439.50;5020228;28;20042;-72
2021/12/30 09:09:00;;;;;;;41.23;15.50;;;;;;;-6.99;58.37;99440.16;5011606;28;20144;-73
2021/12/30 09:11:27;;;;;;;36.00;15.10;;;;;;;-7.00;58.96;99430.53;4982849;28;20100;-73
2021/12/30 09:13:54;;;;;;;34.60;14.25;;;;;;;-6.87;58.68;99433.50;5019688;28;20050;-72
2021/12/30 09:16:20;;;;;;;40.43;16.40;;;;;;;-6.82;58.75;99443.63;5015000;28;20103;-71
2021/12/30 09:18:46;;;;;;;40.03;15.70;;;;;;;-6.84;58.52;99449.09;5020805;28;20494;-73
2021/12/30 09:21:12;;;;;;;42.33;16.57;;;;;;;-6.86;58.81;99444.97;5018588;28;20104;-72
2021/12/30 09:23:41;;;;;;;40.87;15.77;;;;;;;-6.89;59.23;99438.16;5002868;28;20042;-73
2021/12/30 09:26:07;;;;;;;32.83;13.93;;;;;;;-6.94;59.34;99459.13;5022191;28;20053;-73
2021/12/30 09:28:35;;;;;;;38.07;15.73;;;;;;;-6.97;59.49;99454.13;5012039;28;20095;-73
2021/12/30 09:31:02;;;;;;;38.03;14.67;;;;;;;-6.94;59.50;99450.31;5029367;28;20076;-73
2021/12/30 09:33:29;;;;;;;42.97;16.07;;;;;;;-7.05;59.88;99436.34;5019401;28;20096;-73
2021/12/30 09:35:55;;;;;;;35.37;14.90;;;;;;;-6.96;59.74;99447.78;5007758;28;20046;-73
2021/12/30 09:38:21;;;;;;;36.63;14.03;;;;;;;-6.81;59.79;99445.28;5024664;28;20141;-73
2021/12/30 09:40:51;;;;;;;40.30;14.37;;;;;;;-6.85;59.57;99438.66;5016101;28;20364;-71
2021/12/30 09:43:18;;;;;;;49.27;15.30;;;;;;;-6.92;60.05;99435.84;5033885;28;20049;-69
2021/12/30 09:45:53;;;;;;;35.00;14.37;;;;;;;-6.84;60.11;99430.50;5041225;28;20081;-69
2021/12/30 09:48:20;;;;;;;36.23;13.87;;;;;;;-6.73;59.82;99426.63;5022688;28;20100;-77
2021/12/30 09:50:49;;;;;;;38.77;14.67;;;;;;;-6.68;59.86;99436.75;5014518;28;20099;-77
2021/12/30 09:53:22;;;;;;;41.23;14.40;;;;;;;-6.59;59.83;99429.59;5010105;28;20066;-78
2021/12/30 09:55:52;;;;;;;38.60;14.80;;;;;;;-6.54;59.54;99427.25;5025819;28;20045;-77
2021/12/30 09:58:20;;;;;;;38.87;14.50;;;;;;;-6.58;59.65;99405.47;4997078;28;20054;-78
2021/12/30 10:00:48;;;;;;;;;;;;;;;-6.45;59.52;99420.88;5013649;28;20510;-78
2021/12/30 10:03:17;;;;;;;37.95;14.15;;;;;;;-6.43;59.62;99412.75;5017226;28;19952;-78
2021/12/30 10:05:43;;;;;;;38.37;14.97;;;;;;;-6.32;59.36;99420.34;5015865;28;20053;-76
2021/12/30 10:08:14;;;;;;;36.23;14.57;;;;;;;-6.35;59.15;99427.84;5045926;28;20049;-78
2021/12/30 10:10:45;;;;;;;34.30;13.60;;;;;;;-6.37;59.35;99419.19;5021272;28;20107;-78
2021/12/30 10:13:21;;;;;;;36.00;14.10;;;;;;;-6.34;59.36;99401.03;5027950;28;20076;-77
2021/12/30 10:15:51;;;;;;;33.83;13.53;;;;;;;-6.24;58.81;99406.16;5020155;28;20157;-78
2021/12/30 10:18:18;;;;;;;32.57;13.43;;;;;;;-6.24;59.16;99405.31;5029350;28;20053;-76
2021/12/30 10:20:45;;;;;;;33.25;14.10;;;;;;;-6.31;59.42;99410.50;5033796;28;20041;-78
2021/12/30 10:23:14;;;;;;;38.75;14.55;;;;;;;-6.31;59.49;99400.72;5015037;28;20068;-77
2021/12/30 10:25:43;;;;;;;37.47;14.77;;;;;;;-6.30;59.39;99405.03;5018124;28;20530;-77
2021/12/30 10:28:28;;;;;;;38.87;13.87;;;;;;;-6.29;59.50;99400.50;5016795;28;20571;-75
2021/12/30 10:31:01;;;;;;;40.77;14.73;;;;;;;-6.34;60.10;99405.53;5031693;28;20053;-75
2021/12/30 10:33:30;;;;;;;38.67;15.30;;;;;;;-6.42;60.38;99401.09;5011990;28;20054;-76
2021/12/30 10:35:57;;;;;;;34.80;14.07;;;;;;;-6.37;60.05;99387.25;5016376;28;20562;-75
2021/12/30 10:38:27;;;;;;;37.07;16.10;;;;;;;-6.34;60.37;99385.06;5028028;28;20068;-77
2021/12/30 10:40:53;;;;;;;42.33;14.97;;;;;;;-6.33;60.53;99377.94;5022395;28;20050;-77
2021/12/30 10:43:32;;;;;;;36.77;15.03;;;;;;;-6.41;60.49;99360.16;5032426;28;20042;-76
2021/12/30 10:46:15;;;;;;;42.27;15.17;;;;;;;-6.26;60.54;99373.53;5032018;28;20139;-76
2021/12/30 10:48:56;;;;;;;43.80;15.53;;;;;;;-6.23;60.44;99372.38;5034759;28;20045;-76
2021/12/30 10:51:28;;;;;;;43.40;15.60;;;;;;;-6.20;60.29;99372.84;5023442;28;20050;-75
2021/12/30 10:54:17;;;;;;;40.33;16.57;;;;;;;-6.24;60.64;99368.06;5022023;28;20038;-75
2021/12/30 10:56:46;;;;;;;41.70;16.90;;;;;;;-6.21;60.54;99363.22;5020764;28;20152;-71
2021/12/30 10:59:19;;;;;;;38.23;15.87;;;;;;;-6.30;60.39;99349.13;5048210;28;20041;-72
2021/12/30 11:01:49;;;;;;;41.90;15.90;;;;;;;-6.15;60.47;99375.00;5014999;28;20111;-71
2021/12/30 11:04:15;;;;;;;40.30;15.90;;;;;;;-6.11;60.24;99368.31;5033101;28;20418;-71
2021/12/30 11:06:42;;;;;;;40.67;15.20;;;;;;;-6.14;60.62;99358.03;5025996;28;20049;-72
2021/12/30 11:09:19;;;;;;;45.20;16.67;;;;;;;-6.15;60.45;99359.84;5036767;28;20309;-72
2021/12/30 11:11:49;;;;;;;35.72;16.17;;;;;;;-6.14;60.72;99361.50;5032470;28;20546;-72
2021/12/30 11:14:17;;;;;;;40.53;15.90;;;;;;;-6.19;60.94;99368.34;5046920;28;20051;-72
2021/12/30 11:17:16;;;;;;;40.80;15.87;;;;;;;-6.22;60.85;99358.91;5037714;28;20092;-72
2021/12/30 11:19:46;;;;;;;52.27;17.17;;;;;;;-6.27;61.05;99364.75;4987975;28;20049;-72
2021/12/30 11:22:15;;;;;;;41.43;16.10;;;;;;;-6.42;61.42;99351.34;5023801;28;20104;-71
2021/12/30 11:24:43;;;;;;;42.47;16.03;;;;;;;-6.28;61.12;99370.22;5029605;28;20056;-71